Coaticook, Canada
Current Conditions -  °F | °C
As of 12:00 AM on Tuesday 27 Jan 2015 (Local Time) from CYSC Reporting Station
Clear Clear  
Wind Chill: -8°   Ceiling: Unl
Heat Index:   Visibility: 9mi
Dew Point: -2°   Wind: 10mph
Humidity: 67%   Direction: 30°NNE
Pressure: 30.07"   Gusts: NA
Location:  45.13°N, 71.8°W
Report Text: CYSC 270500Z AUTO 03009KT 9SM CLR M14/M19 A3007 RMK PRESFR SLP203
Loading
Personal Weather Stations






























Interactive Weather Map New forecast layout! Learn more

10-Day Weather Forecast

Advertisements
Track Severe Weather on mobile